Flight Track Log - Related Links

Times and Time Zones

All times are in EDT time to prevent confusion due to time zone crossing. See the SWA1277 flight status page for this flight to view local times or setup timezone preferences in your user account.

Time Position Orientation Groundspeed Altitude Reporting Facility
EDT Latitude Longitude Course Direction KTS MPH feet Rate Location/Type
Sat 10:13:50 AM 38.8300 -90.3967 North 226 260 4,100  Level Kansas City Center
Sat 10:14:51 AM 38.8386 -90.3064 83° East 257 296 7,000 2,829 Climbing Kansas City Center
Sat 10:15:53 AM 38.8331 -90.2058 94° East 275 316 9,900 2,780 Climbing Kansas City Center
Sat 10:16:54 AM 38.8269 -90.0889 94° East 322 371 12,700 2,508 Climbing Kansas City Center
Sat 10:17:55 AM 38.8192 -89.9594 94° East 353 406 15,000 1,122 Climbing Kansas City Center
Sat 10:18:00 AM 38.9797 -89.5435 78° East  Level Estimated
Sat 10:18:57 AM 38.8117 -89.8264 94° East 370 426 15,000  Level Kansas City Center
Sat 10:19:58 AM 38.8044 -89.6953 94° East 369 425 16,600 2,213 Climbing Kansas City Center
Sat 10:20:59 AM 38.7944 -89.5406 95° East 383 441 19,500 2,537 Climbing Kansas City Center
Sat 10:22:01 AM 38.8061 -89.3986 84° East 401 461 21,800 2,098 Climbing Kansas City Center
Sat 10:23:02 AM 38.8256 -89.2506 80° East 419 482 23,800 2,213 Climbing Kansas City Center
Sat 10:24:03 AM 38.8461 -89.0867 81° East 432 497 26,300 2,049 Climbing Kansas City Center
Sat 10:25:05 AM 38.8669 -88.9328 80° East 444 511 28,000 1,610 Climbing Kansas City Center
Sat 10:26:06 AM 38.8892 -88.7703 80° East 458 527 29,600 1,561 Climbing Kansas City Center
Sat 10:27:08 AM 38.9314 -88.6178 70° East 457 526 31,200 1,951 Climbing Kansas City Center
Sat 10:28:09 AM 38.9786 -88.4669 68° East 456 525 33,600 2,341 Climbing Kansas City Center
Sat 10:29:11 AM 39.0264 -88.3186 67° East 452 520 36,000 1,951 Climbing Kansas City Center
Sat 10:30:12 AM 39.0714 -88.1803 67° East 440 506 37,600 1,017 Climbing Kansas City Center
Sat 10:31:09 AM 39.1136 -88.0397 69° East 425 489 38,000 504 Climbing Indianapolis Center
Sat 10:32:11 AM 39.1606 -87.8925 68° East 437 503 38,600 488 Climbing Indianapolis Center
Sat 10:33:12 AM 39.2067 -87.7422 68° East 446 513 39,000 195 Climbing Indianapolis Center
Sat 10:34:14 AM 39.2592 -87.5772 68° East 444 511 39,000  Level Indianapolis Center
Sat 10:35:16 AM 39.3053 -87.4314 68° East 442 509 39,000  Level Indianapolis Center
Sat 10:36:18 AM 39.3594 -87.2911 63° Northeast 439 505 39,000  Level Indianapolis Center
Sat 10:37:19 AM 39.4150 -87.1519 63° Northeast 437 503 39,000  Level Indianapolis Center
Sat 10:38:21 AM 39.4697 -87.0119 63° Northeast 437 503 39,000  Level Indianapolis Center
Sat 10:39:23 AM 39.5242 -86.8731 63° Northeast 435 501 39,000  Level Indianapolis Center
Sat 10:40:25 AM 39.5897 -86.7056 63° Northeast 436 502 39,000  Level Indianapolis Center
Sat 10:41:26 AM 39.6414 -86.5725 63° Northeast 434 499 39,000  Level Indianapolis Center
Sat 10:42:28 AM 39.6975 -86.4286 63° Northeast 433 498 39,000  Level Indianapolis Center
Sat 10:43:30 AM 39.7517 -86.2917 63° Northeast 434 499 39,000  Level Indianapolis Center
Sat 10:44:31 AM 39.8125 -86.1297 64° Northeast 439 505 39,000  Level Indianapolis Center
Sat 10:45:33 AM 39.8658 -85.9886 64° Northeast 440 506 39,000  Level Indianapolis Center
Sat 10:46:35 AM 39.9244 -85.8347 64° Northeast 439 505 39,000  Level Indianapolis Center
Sat 10:47:37 AM 39.9769 -85.6914 64° Northeast 438 504 39,000  Level Indianapolis Center
Sat 10:48:38 AM 40.0331 -85.5489 63° Northeast 441 507 39,000  Level Indianapolis Center
Sat 10:49:40 AM 40.0808 -85.4197 64° Northeast 439 505 39,000  Level Indianapolis Center
Sat 10:50:42 AM 40.1447 -85.2483 64° Northeast 438 504 39,000  Level Indianapolis Center
Sat 10:51:43 AM 40.1964 -85.1056 65° Northeast 437 503 39,000  Level Indianapolis Center
Sat 10:52:45 AM 40.2486 -84.9639 64° Northeast 434 499 39,000  Level Indianapolis Center
Sat 10:53:47 AM 40.2975 -84.8350 64° Northeast 435 501 39,000  Level Indianapolis Center
Sat 10:54:48 AM 40.3592 -84.6647 65° Northeast 431 496 39,000  Level Indianapolis Center
Sat 10:55:50 AM 40.4114 -84.5233 64° Northeast 430 495 39,000  Level Indianapolis Center
Sat 10:56:52 AM 40.4617 -84.3808 65° Northeast 430 495 39,000  Level Indianapolis Center
Sat 10:57:53 AM 40.5133 -84.2383 64° Northeast 431 496 39,000  Level Indianapolis Center
Sat 10:58:55 AM 40.5642 -84.0961 65° Northeast 429 494 39,000  Level Indianapolis Center
Sat 10:59:57 AM 40.6144 -83.9522 65° Northeast 431 496 39,000  Level Indianapolis Center
Sat 11:00:58 AM 40.6661 -83.8089 65° Northeast 433 498 39,000  Level Indianapolis Center
Sat 11:02:00 AM 40.7169 -83.6650 65° Northeast 432 497 39,000  Level Indianapolis Center
Sat 11:03:01 AM 40.7761 -83.4925 66° East 429 494 39,000  Level Indianapolis Center
Sat 11:04:03 AM 40.8217 -83.3606 65° Northeast 431 496 39,000  Level Indianapolis Center
Sat 11:05:05 AM 40.8722 -83.2167 65° Northeast 429 494 39,000  Level Indianapolis Center
Sat 11:06:06 AM 40.9139 -83.0681 70° East 429 494 39,000  Level Indianapolis Center
Sat 11:07:08 AM 40.9561 -82.9192 69° East 429 494 39,000  Level Indianapolis Center
Sat 11:08:10 AM 41.0053 -82.7458 69° East 427 491 39,000  Level Indianapolis Center
Sat 11:09:11 AM 41.0467 -82.5975 70° East 426 490 39,000  Level Indianapolis Center
Sat 11:10:13 AM 41.0886 -82.4492 69° East 426 490 39,000  Level Indianapolis Center
Sat 11:11:15 AM 41.1294 -82.2992 70° East 428 493 39,000  Level Indianapolis Center
Sat 11:12:16 AM 41.1706 -82.1500 70° East 428 493 39,000  Level Indianapolis Center
Sat 11:13:18 AM 41.2111 -82.0017 70° East 426 490 39,000  Level Indianapolis Center
Sat 11:14:20 AM 41.2522 -81.8500 70° East 430 495 39,000  Level Indianapolis Center
Sat 11:15:21 AM 41.2953 -81.6967 69° East 431 496 39,000  Level Indianapolis Center
Sat 11:16:36 AM 41.3492 -81.4900 71° East 434 499 39,000  Level Cleveland Center
Sat 11:17:38 AM 41.3853 -81.3561 70° East 431 496 39,000  Level Cleveland Center
Sat 11:18:40 AM 41.4294 -81.1883 71° East 435 501 39,000  Level Cleveland Center
Sat 11:19:42 AM 41.4731 -81.0244 70° East 433 498 39,000  Level Cleveland Center
Sat 11:20:43 AM 41.5136 -80.8694 71° East 437 503 39,000  Level Cleveland Center
Sat 11:21:45 AM 41.5556 -80.7153 70° East 438 504 39,000  Level Cleveland Center
Sat 11:22:47 AM 41.5939 -80.5586 72° East 441 507 39,000  Level Cleveland Center
Sat 11:23:48 AM 41.6339 -80.4025 71° East 441 507 39,000  Level Cleveland Center
Sat 11:24:50 AM 41.6753 -80.2481 70° East 439 505 39,000  Level Cleveland Center
Sat 11:25:51 AM 41.7136 -80.0925 72° East 439 505 39,000  Level Cleveland Center
Sat 11:26:53 AM 41.7531 -79.9372 71° East 438 504 39,000  Level Cleveland Center
Sat 11:27:54 AM 41.7908 -79.7817 72° East 436 502 39,000  Level Cleveland Center
Sat 11:28:56 AM 41.8297 -79.6292 71° East 432 497 39,000  Level Cleveland Center
Sat 11:29:57 AM 41.8681 -79.4758 71° East 436 502 39,000  Level Cleveland Center
Sat 11:30:59 AM 41.9128 -79.2936 72° East 432 497 39,000  Level Cleveland Center
Sat 11:32:00 AM 41.9492 -79.1411 72° East 431 496 39,000  Level Cleveland Center
Sat 11:33:02 AM 41.9864 -78.9878 72° East 433 498 39,000  Level Cleveland Center
Sat 11:34:03 AM 42.0236 -78.8314 72° East 438 504 39,000  Level Cleveland Center
Sat 11:35:04 AM 42.0608 -78.6764 72° East 438 504 39,000  Level Cleveland Center
Sat 11:36:06 AM 42.0978 -78.5219 72° East 437 503 39,000  Level Cleveland Center
Sat 11:37:07 AM 42.1342 -78.3656 73° East 439 505 39,000  Level Cleveland Center
Sat 11:38:09 AM 42.1786 -78.1794 72° East 441 507 39,000  Level Cleveland Center
Sat 11:39:10 AM 42.2156 -78.0228 72° East 441 507 39,000  Level Cleveland Center
Sat 11:40:12 AM 42.2517 -77.8653 73° East 444 511 39,000  Level Cleveland Center
Sat 11:41:13 AM 42.2875 -77.7086 73° East 442 509 39,000  Level Cleveland Center
Sat 11:42:15 AM 42.3228 -77.5528 73° East 440 506 39,000  Level Cleveland Center
Sat 11:43:16 AM 42.3569 -77.3967 73° East 440 506 39,000  Level Cleveland Center
Sat 11:44:18 AM 42.3997 -77.2097 73° East 440 506 39,000  Level Cleveland Center
Sat 11:45:19 AM 42.4350 -77.0522 73° East 441 507 39,000  Level Cleveland Center
Sat 11:46:21 AM 42.4547 -76.8872 81° East 447 514 39,000  Level Cleveland Center
Sat 11:47:23 AM 42.4725 -76.7178 82° East 455 524 39,000  Level Cleveland Center
Sat 11:48:24 AM 42.4917 -76.5497 81° East 454 522 39,000  Level Cleveland Center
Sat 11:49:28 AM 42.5094 -76.3725 82° East 446 513 39,000  Level Boston Center
Sat 11:50:28 AM 42.5153 -76.2008 87° East 446 513 39,000  Level Boston Center
Sat 11:51:28 AM 42.5189 -76.0236 88° East 452 520 39,000  Level Boston Center
Sat 11:52:29 AM 42.5222 -75.8519 88° East 458 527 39,000  Level Boston Center
Sat 11:53:26 AM 42.5272 -75.6744 88° East 458 527 39,000  Level Boston Center
Sat 11:54:28 AM 42.5300 -75.5000 89° East 458 527 39,000  Level Boston Center
Sat 11:55:28 AM 42.5328 -75.3197 89° East 463 533 39,000  Level Boston Center
Sat 11:56:29 AM 42.5369 -75.1425 88° East 463 533 39,000  Level Boston Center
Sat 11:57:29 AM 42.5389 -74.9678 89° East 463 533 39,000  Level Boston Center
Sat 11:58:27 AM 42.5431 -74.7733 88° East 463 533 39,000  Level Boston Center
Sat 11:59:27 AM 42.5447 -74.5958 89° East 463 533 39,000  Level Boston Center
Sat 12:00:29 PM 42.5478 -74.4242 89° East 463 533 39,000  Level Boston Center
Sat 12:01:29 PM 42.5486 -74.2467 90° East 458 527 39,000  Level Boston Center
Sat 12:02:27 PM 42.5511 -74.0719 89° East 458 527 39,000  Level Boston Center
Sat 12:03:27 PM 42.5517 -73.8972 90° East 458 527 39,000  Level Boston Center
Sat 12:04:28 PM 42.5536 -73.7169 89° East 458 527 39,000 -655 Level Boston Center
Sat 12:05:26 PM 42.5533 -73.5419 90° East 458 527 37,700 -2,067 Descending Boston Center
Sat 12:06:27 PM 42.5550 -73.3617 89° East 458 527 34,900 -2,529 Descending Boston Center
Sat 12:07:27 PM 42.5564 -73.1786 89° East 474 545 32,600 -2,231 Descending Boston Center
Sat 12:08:28 PM 42.5533 -73.0094 91° East 468 539 30,400 -2,115 Descending Boston Center
Sat 12:09:29 PM 42.5519 -72.8403 91° East 454 522 28,300 -2,132 Descending Boston Center
Sat 12:10:29 PM 42.5522 -72.6742 90° East 443 510 26,100 -2,237 Descending Boston Center
Sat 12:11:27 PM 42.5506 -72.5217 91° East 430 495 23,900 -2,237 Descending Boston Center
Sat 12:12:27 PM 42.5506 -72.3583 90° East 419 482 21,700 -1,934 Descending Boston Center
Sat 12:13:28 PM 42.5481 -72.2258 91° East 413 475 20,000 -1,967 Descending Boston Center
Sat 12:14:29 PM 42.5456 -72.0625 91° East 390 449 17,700 -2,281 Descending Boston Center
Sat 12:15:29 PM 42.5325 -71.9161 97° East 384 442 15,400 -2,136 Descending Boston Center
Sat 12:16:27 PM 42.5214 -71.7753 96° East 389 448 13,500 -2,081 Descending Boston Center
Sat 12:17:33 PM 42.5000 -71.6167 100° East 367 422 11,100 -1,190 Descending KA90
Sat 12:18:33 PM 42.5000 -71.4833 90° East 341 392 11,000 -350 Descending KA90
Sat 12:19:33 PM 42.4833 -71.3667 101° East 309 356 10,400 -1,000 Descending KA90
Sat 12:20:33 PM 42.4667 -71.2500 101° East 310 357 9,000 -1,400 Descending KA90
Sat 12:21:33 PM 42.4667 -71.1333 90° East 301 346 7,600 -1,096 Descending KA90
Sat 12:22:28 PM 42.4500 -71.0500 105° East 273 314 6,900 -730 Descending KA90
Sat 12:23:28 PM 42.4167 -70.9667 118° Southeast 250 288 6,200 -800 Descending KA90
Sat 12:24:28 PM 42.3833 -70.8833 118° Southeast 241 277 5,300 -857 Descending KA90
Sat 12:25:27 PM 42.3333 -70.8167 135° Southeast 239 275 4,500 -650 Descending KA90
Sat 12:26:28 PM 42.2833 -70.7667 143° Southeast 203 234 4,000 -446 Descending KA90
Sat 12:27:28 PM 42.2500 -70.8167 228° Southwest 199 229 3,600 -550 Descending KA90
Sat 12:28:28 PM 42.2667 -70.8833 289° West 169 194 2,900 -950 Descending KA90
Sat 12:29:28 PM 42.3000 -70.9167 324° Northwest 150 173 1,700 -1,050 Descending KA90
Sat 12:30:28 PM 42.3333 -70.9500 324° Northwest 135 155 800 -789 Descending KA90
Sat 12:31:22 PM 42.3500 -70.9833 304° West 126 145 200 -667 Descending KA90

Login

Don't have an account? Register now (free) for customized features, flight alerts, and more!